createdAt,value
2018-08-30T00:01:31.900Z,19.50
2018-08-30T00:04:00.084Z,19.50
2018-08-30T00:06:28.287Z,19.50
2018-08-30T00:08:56.536Z,19.40
2018-08-30T00:11:24.723Z,19.40
2018-08-30T00:13:52.918Z,19.40
2018-08-30T00:16:21.140Z,19.40
2018-08-30T00:18:49.348Z,19.40
2018-08-30T00:21:17.537Z,19.30
2018-08-30T00:23:45.784Z,19.30
2018-08-30T00:26:14.015Z,19.30
2018-08-30T00:28:42.247Z,19.20
2018-08-30T00:31:10.480Z,19.20
2018-08-30T00:33:38.743Z,19.20
2018-08-30T00:36:07.022Z,19.20
2018-08-30T00:38:35.262Z,19.10
2018-08-30T00:41:03.440Z,19.10
2018-08-30T00:43:31.647Z,19.10
2018-08-30T00:46:00.116Z,19.00
2018-08-30T00:48:28.300Z,18.90
2018-08-30T00:50:56.534Z,18.90
2018-08-30T00:53:24.735Z,18.80
2018-08-30T00:55:52.984Z,18.80
2018-08-30T00:58:21.273Z,18.80
2018-08-30T01:00:49.435Z,18.80
2018-08-30T01:03:17.633Z,18.80
2018-08-30T01:05:45.827Z,18.80
2018-08-30T01:08:14.039Z,18.70
2018-08-30T01:10:42.224Z,18.70
2018-08-30T01:13:10.443Z,18.60
2018-08-30T01:15:38.679Z,18.60
2018-08-30T01:18:06.907Z,18.60
2018-08-30T01:20:35.127Z,18.60
2018-08-30T01:23:03.340Z,18.60
2018-08-30T01:25:31.547Z,18.60
2018-08-30T01:27:59.739Z,18.60
2018-08-30T01:30:28.006Z,18.50
2018-08-30T01:32:56.175Z,18.50
2018-08-30T01:35:24.388Z,18.40
2018-08-30T01:37:52.595Z,18.40
2018-08-30T01:40:20.805Z,18.40
2018-08-30T01:42:48.999Z,18.30
2018-08-30T01:45:17.200Z,18.30
2018-08-30T01:47:45.398Z,18.30
2018-08-30T01:50:13.604Z,18.30
2018-08-30T01:52:41.814Z,18.20
2018-08-30T01:55:10.014Z,18.20
2018-08-30T01:57:38.231Z,18.30
2018-08-30T02:00:06.447Z,18.20
2018-08-30T02:02:34.737Z,18.20
2018-08-30T02:05:02.942Z,18.10
2018-08-30T02:07:31.119Z,18.00
2018-08-30T02:09:59.343Z,18.00
2018-08-30T02:12:27.540Z,17.90
2018-08-30T02:14:55.726Z,17.90
2018-08-30T02:17:23.956Z,17.80
2018-08-30T02:19:52.183Z,17.80
2018-08-30T02:22:20.378Z,17.80
2018-08-30T02:24:48.580Z,17.70
2018-08-30T02:27:16.788Z,17.70
2018-08-30T02:29:44.980Z,17.60
2018-08-30T02:32:13.224Z,17.60
2018-08-30T02:34:41.427Z,17.50
2018-08-30T02:37:09.883Z,17.50
2018-08-30T02:39:38.105Z,17.50
2018-08-30T02:42:06.291Z,17.40
2018-08-30T02:44:34.511Z,17.40
2018-08-30T02:47:02.695Z,17.40
2018-08-30T02:49:30.924Z,17.40
2018-08-30T02:51:59.188Z,17.40
2018-08-30T02:54:27.383Z,17.40
2018-08-30T02:56:55.679Z,17.40
2018-08-30T02:59:23.887Z,17.40
2018-08-30T03:01:52.104Z,17.40
2018-08-30T03:04:20.303Z,17.30
2018-08-30T03:06:48.531Z,17.30
2018-08-30T03:09:16.769Z,17.30
2018-08-30T03:11:44.960Z,17.30
2018-08-30T03:14:13.448Z,17.30
2018-08-30T03:16:41.651Z,17.20
2018-08-30T03:19:09.872Z,17.20
2018-08-30T03:21:38.140Z,17.20
2018-08-30T03:24:06.377Z,17.20
2018-08-30T03:26:34.585Z,17.10
2018-08-30T03:29:02.827Z,17.10
2018-08-30T03:31:31.116Z,17.00
2018-08-30T03:33:59.297Z,17.10
2018-08-30T03:36:27.567Z,17.00
2018-08-30T03:38:55.759Z,17.00
2018-08-30T03:41:23.952Z,17.00
2018-08-30T03:43:52.172Z,17.10
2018-08-30T03:46:20.376Z,17.10
2018-08-30T03:48:48.579Z,17.10
2018-08-30T03:51:16.796Z,17.00
2018-08-30T03:53:44.996Z,17.00
2018-08-30T03:56:13.201Z,17.00
2018-08-30T03:58:41.416Z,17.00
2018-08-30T04:01:09.604Z,17.00
2018-08-30T04:03:37.823Z,17.00
2018-08-30T04:06:06.043Z,17.00
2018-08-30T04:08:34.315Z,17.00
2018-08-30T04:11:02.582Z,16.90
2018-08-30T04:13:30.796Z,16.90
2018-08-30T04:15:58.984Z,16.90
2018-08-30T04:18:27.223Z,16.90
2018-08-30T04:20:55.435Z,16.80
2018-08-30T04:23:23.621Z,16.90
2018-08-30T04:25:51.906Z,16.90
2018-08-30T04:28:20.124Z,16.80
2018-08-30T04:30:48.396Z,16.90
2018-08-30T04:33:16.584Z,16.90
2018-08-30T04:35:44.860Z,16.90
2018-08-30T04:38:13.104Z,16.90
2018-08-30T04:40:41.299Z,16.90
2018-08-30T04:43:09.504Z,16.90
2018-08-30T04:45:37.712Z,16.80
2018-08-30T04:48:05.771Z,16.90
2018-08-30T04:50:34.237Z,16.90
2018-08-30T04:53:02.272Z,16.90
2018-08-30T04:55:30.484Z,16.90
2018-08-30T04:57:58.704Z,16.90
2018-08-30T05:00:26.887Z,16.90
2018-08-30T05:02:55.148Z,16.90
2018-08-30T05:05:23.375Z,16.90
2018-08-30T05:07:51.596Z,16.90
2018-08-30T05:10:19.820Z,16.90
2018-08-30T05:12:48.038Z,16.80
2018-08-30T05:15:16.260Z,16.80
2018-08-30T05:17:44.468Z,16.80
2018-08-30T05:20:12.728Z,16.70
2018-08-30T05:22:40.931Z,16.70
2018-08-30T05:25:09.148Z,16.70
2018-08-30T05:27:37.472Z,16.70
2018-08-30T05:30:05.728Z,16.60
2018-08-30T05:32:33.964Z,16.70
2018-08-30T05:35:02.292Z,16.70
2018-08-30T05:37:30.540Z,16.70
2018-08-30T05:39:58.735Z,16.70
2018-08-30T05:42:26.939Z,16.70
2018-08-30T05:44:55.152Z,16.70
2018-08-30T05:47:23.416Z,16.70
2018-08-30T05:49:51.610Z,16.70
2018-08-30T05:52:19.796Z,16.80
2018-08-30T05:54:48.015Z,16.80
2018-08-30T05:57:16.196Z,16.80
2018-08-30T05:59:44.404Z,16.80
2018-08-30T06:02:12.603Z,16.80
2018-08-30T06:04:40.940Z,16.80
2018-08-30T06:07:09.203Z,16.80
2018-08-30T06:09:37.417Z,16.90
2018-08-30T06:12:05.640Z,16.90
2018-08-30T06:14:33.864Z,17.00
2018-08-30T06:17:02.124Z,17.00
2018-08-30T06:19:30.308Z,16.90
2018-08-30T06:21:58.511Z,16.80
2018-08-30T06:24:26.723Z,16.60
2018-08-30T06:26:54.978Z,16.50
2018-08-30T06:29:23.235Z,16.30
2018-08-30T06:31:51.383Z,16.20
2018-08-30T06:34:19.584Z,16.10
2018-08-30T06:36:47.804Z,15.90
2018-08-30T06:39:16.028Z,15.90
2018-08-30T06:41:44.232Z,15.90
2018-08-30T06:46:42.629Z,16.00
2018-08-30T06:49:10.820Z,16.10
2018-08-30T06:51:39.047Z,16.20
2018-08-30T06:54:07.277Z,16.20
2018-08-30T06:56:35.585Z,16.20
2018-08-30T06:59:03.797Z,16.20
2018-08-30T07:01:31.984Z,16.10
2018-08-30T07:04:00.197Z,16.10
2018-08-30T07:06:28.388Z,16.00
2018-08-30T07:08:56.603Z,16.10
2018-08-30T07:11:24.824Z,16.20
2018-08-30T07:13:53.012Z,16.30
2018-08-30T07:16:21.212Z,16.40
2018-08-30T07:18:49.462Z,16.60
2018-08-30T07:21:17.660Z,16.70
2018-08-30T07:23:45.851Z,16.90
2018-08-30T07:26:14.227Z,17.10
2018-08-30T07:28:42.496Z,17.20
2018-08-30T07:31:10.604Z,17.20
2018-08-30T07:33:38.834Z,17.20
2018-08-30T07:36:07.064Z,17.20
2018-08-30T07:38:35.287Z,17.30
2018-08-30T07:41:03.474Z,17.20
2018-08-30T07:43:31.671Z,17.30
2018-08-30T07:45:59.880Z,17.30
2018-08-30T07:48:28.121Z,17.30
2018-08-30T07:50:56.314Z,17.40
2018-08-30T07:53:24.536Z,17.50
2018-08-30T07:55:52.752Z,17.50
2018-08-30T07:58:21.132Z,17.60
2018-08-30T08:00:49.620Z,17.60
2018-08-30T08:03:19.063Z,17.70
2018-08-30T08:05:47.243Z,17.70
2018-08-30T08:08:15.572Z,17.70
2018-08-30T08:10:43.816Z,17.80
2018-08-30T08:13:12.015Z,17.80
2018-08-30T08:15:40.260Z,17.90
2018-08-30T08:18:08.469Z,17.90
2018-08-30T08:20:36.692Z,18.00
2018-08-30T08:23:04.976Z,18.00
2018-08-30T08:25:33.189Z,18.10
2018-08-30T08:28:01.380Z,18.10
2018-08-30T08:30:29.634Z,18.10
2018-08-30T08:32:57.835Z,18.10
2018-08-30T08:35:26.060Z,18.20
2018-08-30T08:37:54.260Z,18.30
2018-08-30T08:40:22.483Z,18.40
2018-08-30T08:42:50.676Z,18.60
2018-08-30T08:45:18.912Z,18.70
2018-08-30T08:47:47.218Z,18.90
2018-08-30T08:50:15.316Z,19.00
2018-08-30T08:52:43.549Z,19.10
2018-08-30T08:55:11.911Z,19.30
2018-08-30T08:57:40.081Z,19.40
2018-08-30T09:00:08.313Z,19.30
2018-08-30T09:02:37.371Z,19.20
2018-08-30T09:05:05.989Z,19.00
2018-08-30T09:07:34.271Z,18.90
2018-08-30T09:10:02.463Z,19.00
2018-08-30T09:12:30.700Z,19.20
2018-08-30T09:14:58.909Z,19.40
2018-08-30T09:17:27.151Z,19.60
2018-08-30T09:19:55.412Z,19.70
2018-08-30T09:22:23.652Z,19.90
2018-08-30T09:24:51.923Z,19.90
2018-08-30T09:27:20.156Z,19.80
2018-08-30T09:29:48.376Z,19.60
2018-08-30T09:32:16.595Z,19.50
2018-08-30T09:34:44.829Z,19.40
2018-08-30T09:37:14.140Z,19.50
2018-08-30T09:39:42.958Z,19.70
2018-08-30T09:42:11.185Z,19.90
2018-08-30T09:44:39.456Z,20.10
2018-08-30T09:47:07.716Z,20.40
2018-08-30T09:49:35.974Z,20.70
2018-08-30T09:52:04.806Z,20.90
2018-08-30T09:54:33.172Z,20.90
2018-08-30T09:57:01.490Z,20.90
2018-08-30T09:59:29.620Z,20.80
2018-08-30T10:02:02.762Z,20.80
2018-08-30T10:04:31.171Z,20.80
2018-08-30T10:06:59.511Z,20.80
2018-08-30T10:09:27.748Z,20.80
2018-08-30T10:11:55.935Z,20.70
2018-08-30T10:14:24.184Z,20.60
2018-08-30T10:16:52.400Z,20.60
2018-08-30T10:19:20.628Z,20.70
2018-08-30T10:21:49.493Z,21.00
2018-08-30T10:24:17.699Z,21.20
2018-08-30T10:26:45.977Z,21.40
2018-08-30T10:29:14.257Z,21.50
2018-08-30T10:31:42.448Z,21.50
2018-08-30T10:34:10.635Z,21.40
2018-08-30T10:36:38.951Z,21.30
2018-08-30T10:39:07.885Z,21.30
2018-08-30T10:41:36.215Z,21.40
2018-08-30T10:44:04.508Z,21.50
2018-08-30T10:46:32.791Z,21.50
2018-08-30T10:49:01.075Z,21.40
2018-08-30T10:51:29.368Z,21.50
2018-08-30T10:53:57.559Z,21.60
2018-08-30T10:56:25.825Z,21.80
2018-08-30T10:58:53.989Z,21.90
2018-08-30T11:01:22.219Z,22.10
2018-08-30T11:03:50.499Z,22.20
2018-08-30T11:06:18.723Z,22.20
2018-08-30T11:08:46.981Z,22.30
2018-08-30T11:11:15.169Z,22.30
2018-08-30T11:13:43.384Z,22.40
2018-08-30T11:16:11.603Z,22.50
2018-08-30T11:18:39.813Z,22.60
2018-08-30T11:21:08.050Z,22.70
2018-08-30T11:23:36.547Z,22.60
2018-08-30T11:26:04.776Z,22.50
2018-08-30T11:28:32.987Z,22.60
2018-08-30T11:31:01.224Z,22.60
2018-08-30T11:33:29.463Z,22.80
2018-08-30T11:35:57.697Z,22.70
2018-08-30T11:38:25.924Z,22.60
2018-08-30T11:40:54.184Z,22.60
2018-08-30T11:43:22.482Z,22.60
2018-08-30T11:45:50.628Z,22.70
2018-08-30T11:48:18.839Z,22.70
2018-08-30T11:50:47.019Z,22.90
2018-08-30T11:53:15.277Z,23.10
2018-08-30T11:55:43.520Z,23.30
2018-08-30T11:58:11.788Z,23.40
2018-08-30T12:00:40.350Z,23.50
2018-08-30T12:03:08.532Z,23.60
2018-08-30T12:05:36.751Z,23.60
2018-08-30T12:08:05.573Z,23.50
2018-08-30T12:10:36.339Z,23.30
2018-08-30T12:13:04.700Z,23.00
2018-08-30T12:15:32.900Z,22.70
2018-08-30T12:18:01.136Z,22.50
2018-08-30T12:20:29.368Z,22.30
2018-08-30T12:22:57.593Z,22.20
2018-08-30T12:25:25.812Z,22.00
2018-08-30T12:27:54.112Z,21.90
2018-08-30T12:30:22.412Z,21.80
2018-08-30T12:32:50.617Z,21.80
2018-08-30T12:35:18.884Z,21.80
2018-08-30T12:37:47.130Z,21.90
2018-08-30T12:40:15.390Z,22.10
2018-08-30T12:42:43.510Z,22.20
2018-08-30T12:45:11.703Z,22.30
2018-08-30T12:47:39.925Z,22.40
2018-08-30T12:50:08.247Z,22.50
2018-08-30T12:52:36.451Z,22.50
2018-08-30T12:55:04.738Z,22.50
2018-08-30T12:57:32.971Z,22.50
2018-08-30T13:00:01.262Z,22.60
2018-08-30T13:02:29.437Z,22.70
2018-08-30T13:04:57.806Z,22.90
2018-08-30T13:07:25.927Z,23.20
2018-08-30T13:09:54.796Z,23.40
2018-08-30T13:12:23.167Z,23.60
2018-08-30T13:14:51.341Z,23.60
2018-08-30T13:17:19.513Z,23.70
2018-08-30T13:19:47.799Z,23.80
2018-08-30T13:22:16.358Z,23.90
2018-08-30T13:24:44.312Z,24.10
2018-08-30T13:27:12.466Z,24.30
2018-08-30T13:29:40.715Z,24.30
2018-08-30T13:32:09.093Z,24.20
2018-08-30T13:34:37.164Z,24.10
2018-08-30T13:37:05.740Z,23.80
2018-08-30T13:39:33.794Z,23.60
2018-08-30T13:42:02.512Z,23.40
2018-08-30T13:44:30.382Z,23.30
2018-08-30T13:46:58.496Z,23.30
2018-08-30T13:49:26.747Z,23.30
2018-08-30T13:51:55.210Z,23.20
2018-08-30T13:54:23.558Z,23.10
2018-08-30T13:56:51.981Z,23.10
2018-08-30T13:59:20.375Z,23.10
2018-08-30T14:01:48.670Z,23.10
2018-08-30T14:04:16.711Z,23.10
2018-08-30T14:06:45.029Z,23.10
2018-08-30T14:09:13.404Z,23.10
2018-08-30T14:11:41.707Z,23.10
2018-08-30T14:14:09.828Z,23.10
2018-08-30T14:16:37.784Z,23.20
2018-08-30T14:19:06.489Z,23.30
2018-08-30T14:21:34.518Z,23.40
2018-08-30T14:24:02.871Z,23.50
2018-08-30T14:26:30.901Z,23.60
2018-08-30T14:28:59.167Z,23.80
2018-08-30T14:31:27.383Z,23.90
2018-08-30T14:33:55.587Z,24.10
2018-08-30T14:36:23.864Z,24.30
2018-08-30T14:38:52.309Z,24.60
2018-08-30T14:41:20.447Z,24.80
2018-08-30T14:43:48.555Z,25.00
2018-08-30T14:46:16.748Z,25.10
2018-08-30T14:48:45.031Z,25.20
2018-08-30T14:51:13.254Z,25.10
2018-08-30T14:53:41.506Z,25.10
2018-08-30T14:56:09.719Z,25.20
2018-08-30T14:58:37.944Z,25.30
2018-08-30T15:01:06.260Z,25.50
2018-08-30T15:03:34.494Z,25.50
2018-08-30T15:06:02.840Z,25.40
2018-08-30T15:08:30.995Z,25.30
2018-08-30T15:10:59.276Z,25.10
2018-08-30T15:13:27.501Z,24.80
2018-08-30T15:15:55.726Z,24.40
2018-08-30T15:18:23.944Z,24.20
2018-08-30T15:20:52.148Z,23.90
2018-08-30T15:23:20.451Z,23.70
2018-08-30T15:25:48.571Z,23.60
2018-08-30T15:28:16.847Z,23.60
2018-08-30T15:30:45.060Z,23.50
2018-08-30T15:33:13.296Z,23.50
2018-08-30T15:35:41.520Z,23.40
2018-08-30T15:38:09.735Z,23.40
2018-08-30T15:40:38.001Z,23.20
2018-08-30T15:43:06.199Z,22.80
2018-08-30T15:45:34.456Z,22.50
2018-08-30T15:48:02.694Z,22.10
2018-08-30T15:50:31.144Z,21.70
2018-08-30T15:52:59.336Z,21.30
2018-08-30T15:55:27.561Z,21.00
2018-08-30T15:57:55.780Z,20.70
2018-08-30T16:00:24.024Z,20.50
2018-08-30T16:02:52.244Z,20.40
2018-08-30T16:05:20.597Z,20.20
2018-08-30T16:07:48.704Z,20.10
2018-08-30T16:10:16.992Z,19.90
2018-08-30T16:12:45.207Z,19.80
2018-08-30T16:15:13.533Z,19.70
2018-08-30T16:17:41.792Z,19.60
2018-08-30T16:20:10.032Z,19.50
2018-08-30T16:23:01.995Z,19.40
2018-08-30T16:25:30.177Z,19.30
2018-08-30T16:27:58.383Z,19.10
2018-08-30T16:30:27.123Z,19.00
2018-08-30T16:32:55.401Z,18.90
2018-08-30T16:35:23.667Z,18.90
2018-08-30T16:37:51.848Z,18.80
2018-08-30T16:40:20.039Z,18.80
2018-08-30T16:42:48.277Z,18.70
2018-08-30T16:45:16.470Z,18.70
2018-08-30T16:47:44.695Z,18.60
2018-08-30T16:50:12.924Z,18.60
2018-08-30T16:52:41.161Z,18.60
2018-08-30T16:55:09.396Z,18.50
2018-08-30T16:57:37.664Z,18.50
2018-08-30T17:00:05.920Z,18.50
2018-08-30T17:02:34.233Z,18.40
2018-08-30T17:05:02.468Z,18.40
2018-08-30T17:07:30.675Z,18.50
2018-08-30T17:09:59.008Z,18.50
2018-08-30T17:12:27.220Z,18.40
2018-08-30T17:14:55.481Z,18.50
2018-08-30T17:17:23.751Z,18.50
2018-08-30T17:19:51.900Z,18.50
2018-08-30T17:22:20.150Z,18.50
2018-08-30T17:24:48.342Z,18.40
2018-08-30T17:27:16.618Z,18.40
2018-08-30T17:29:44.812Z,18.30
2018-08-30T17:32:13.052Z,18.30
2018-08-30T17:34:41.437Z,18.30
2018-08-30T17:37:09.759Z,18.20
2018-08-30T17:39:37.996Z,18.20
2018-08-30T17:42:06.232Z,18.10
2018-08-30T17:44:34.587Z,18.10
2018-08-30T17:47:02.839Z,18.00
2018-08-30T17:49:31.108Z,18.00
2018-08-30T17:51:59.365Z,17.90
2018-08-30T17:54:27.564Z,17.90
2018-08-30T17:56:55.769Z,17.80
2018-08-30T17:59:24.006Z,17.80
2018-08-30T18:01:52.220Z,17.70
2018-08-30T18:04:20.528Z,17.60
2018-08-30T18:06:48.726Z,17.60
2018-08-30T18:09:16.956Z,17.50
2018-08-30T18:11:45.201Z,17.50
2018-08-30T18:14:13.376Z,17.40
2018-08-30T18:16:41.620Z,17.40
2018-08-30T18:19:09.828Z,17.30
2018-08-30T18:21:38.058Z,17.20
2018-08-30T18:24:06.468Z,17.20
2018-08-30T18:26:34.655Z,17.10
2018-08-30T18:29:02.935Z,17.00
2018-08-30T18:31:31.219Z,17.00
2018-08-30T18:33:59.439Z,17.00
2018-08-30T18:36:27.587Z,16.90
2018-08-30T18:38:55.840Z,16.80
2018-08-30T18:41:24.035Z,16.80
2018-08-30T18:43:52.237Z,16.70
2018-08-30T18:46:20.544Z,16.70
2018-08-30T18:48:48.774Z,16.60
2018-08-30T18:51:16.964Z,16.50
2018-08-30T18:53:45.235Z,16.50
2018-08-30T18:56:13.436Z,16.40
2018-08-30T18:58:41.628Z,16.40
2018-08-30T19:01:09.848Z,16.30
2018-08-30T19:03:38.093Z,16.30
2018-08-30T19:06:06.296Z,16.20
2018-08-30T19:08:34.508Z,16.10
2018-08-30T19:11:02.756Z,16.10
2018-08-30T19:13:30.955Z,16.00
2018-08-30T19:16:04.480Z,15.90
2018-08-30T19:18:38.166Z,15.90
2018-08-30T19:21:06.645Z,15.80
2018-08-30T19:23:35.265Z,15.70
2018-08-30T19:26:03.512Z,15.60
2018-08-30T19:28:31.724Z,15.60
2018-08-30T19:30:59.955Z,15.50
2018-08-30T19:33:28.191Z,15.50
2018-08-30T19:36:01.860Z,15.40
2018-08-30T19:38:30.108Z,15.30
2018-08-30T19:41:03.641Z,15.30
2018-08-30T19:43:31.862Z,15.20
2018-08-30T19:46:00.068Z,15.20
2018-08-30T19:48:28.289Z,15.10
2018-08-30T19:50:56.507Z,15.10
2018-08-30T19:53:24.722Z,15.10
2018-08-30T19:55:52.938Z,15.00
2018-08-30T19:58:21.146Z,15.00
2018-08-30T20:00:49.358Z,14.90
2018-08-30T20:03:17.568Z,14.90
2018-08-30T20:05:45.792Z,14.90
2018-08-30T20:08:13.987Z,14.80
2018-08-30T20:10:42.351Z,14.80
2018-08-30T20:13:10.548Z,14.80
2018-08-30T20:15:38.802Z,14.80
2018-08-30T20:18:07.057Z,14.80
2018-08-30T20:20:35.260Z,14.80
2018-08-30T20:23:03.547Z,14.80
2018-08-30T20:25:31.859Z,14.80
2018-08-30T20:28:00.158Z,14.70
2018-08-30T20:30:28.352Z,14.70
2018-08-30T20:32:56.637Z,14.70
2018-08-30T20:35:24.856Z,14.70
2018-08-30T20:37:53.167Z,14.70
2018-08-30T20:40:21.392Z,14.70
2018-08-30T20:42:49.597Z,14.70
2018-08-30T20:45:17.839Z,14.70
2018-08-30T20:47:46.049Z,14.70
2018-08-30T20:50:14.265Z,14.70
2018-08-30T20:52:42.480Z,14.60
2018-08-30T20:55:10.710Z,14.60
2018-08-30T20:57:39.044Z,14.50
2018-08-30T21:00:07.330Z,14.40
2018-08-30T21:02:35.832Z,14.40
2018-08-30T21:05:04.048Z,14.30
2018-08-30T21:07:32.267Z,14.20
2018-08-30T21:10:00.499Z,14.10
2018-08-30T21:12:28.740Z,14.00
2018-08-30T21:14:56.940Z,13.90
2018-08-30T21:17:25.220Z,13.90
2018-08-30T21:19:53.471Z,13.90
2018-08-30T21:22:21.663Z,13.90
2018-08-30T21:24:49.871Z,13.90
2018-08-30T21:27:18.124Z,13.90
2018-08-30T21:29:46.336Z,13.80
2018-08-30T21:32:14.547Z,13.80
2018-08-30T21:34:42.757Z,13.80
2018-08-30T21:37:10.973Z,13.70
2018-08-30T21:39:39.204Z,13.70
2018-08-30T21:42:07.427Z,13.70
2018-08-30T21:44:35.659Z,13.80
2018-08-30T21:47:03.881Z,13.90
2018-08-30T21:49:32.119Z,14.00
2018-08-30T21:52:00.320Z,14.00
2018-08-30T21:54:28.527Z,14.20
2018-08-30T21:56:56.757Z,14.30
2018-08-30T21:59:24.963Z,14.40
2018-08-30T22:01:53.187Z,14.50
2018-08-30T22:04:21.412Z,14.50
2018-08-30T22:06:49.632Z,14.60
2018-08-30T22:09:17.961Z,14.60
2018-08-30T22:11:46.171Z,14.70
2018-08-30T22:14:14.462Z,14.70
2018-08-30T22:16:42.637Z,14.80
2018-08-30T22:19:10.868Z,14.80
2018-08-30T22:21:39.133Z,14.80
2018-08-30T22:24:07.396Z,14.80
2018-08-30T22:26:35.602Z,14.80
2018-08-30T22:29:03.847Z,14.70
2018-08-30T22:31:32.040Z,14.70
2018-08-30T22:34:00.288Z,14.60
2018-08-30T22:36:28.497Z,14.60
2018-08-30T22:38:56.725Z,14.60
2018-08-30T22:41:24.912Z,14.60
2018-08-30T22:43:53.139Z,14.60
2018-08-30T22:46:21.344Z,14.70
2018-08-30T22:48:49.548Z,14.70
2018-08-30T22:51:17.768Z,14.70
2018-08-30T22:53:45.959Z,14.70
2018-08-30T22:56:14.174Z,14.80
2018-08-30T22:58:42.387Z,14.90
2018-08-30T23:01:10.617Z,14.90
2018-08-30T23:03:38.845Z,14.90
2018-08-30T23:06:07.052Z,15.00
2018-08-30T23:08:35.272Z,15.00
2018-08-30T23:11:03.468Z,15.00
2018-08-30T23:13:31.716Z,15.00
2018-08-30T23:15:59.927Z,15.00
2018-08-30T23:18:28.148Z,15.10
2018-08-30T23:20:56.384Z,15.10
2018-08-30T23:23:24.580Z,15.10
2018-08-30T23:25:52.839Z,15.10
2018-08-30T23:28:21.031Z,15.10
2018-08-30T23:30:49.225Z,15.10
2018-08-30T23:33:17.441Z,15.10
2018-08-30T23:35:45.624Z,15.10
2018-08-30T23:38:13.823Z,15.10
2018-08-30T23:40:42.019Z,15.00
2018-08-30T23:43:10.240Z,15.00
2018-08-30T23:45:38.451Z,15.10
2018-08-30T23:48:06.709Z,15.10
2018-08-30T23:50:34.899Z,15.10
2018-08-30T23:53:03.116Z,15.10
2018-08-30T23:55:31.331Z,15.10
2018-08-30T23:58:10.793Z,15.20
